Time;durP1;ratioP1;P1;durP2;ratioP2;P2;SDS_P1;SDS_P2;PMS_P1;PMS_P2;Temp;Humidity;BMP_temperature;BMP_pressure;BME280_temperature;BME280_humidity;BME280_pressure;Samples;Min_cycle;Max_cycle;Signal;HPM_P1;HPM_P2
2023/06/04 00:02:17;;;;;;;10.23;8.05;;;;;;;16.18;100.00;63675.34;5088776;28;20227;-78
2023/06/04 00:04:44;;;;;;;9.45;8.52;;;;;;;16.21;100.00;63670.75;5068404;28;20228;-78
2023/06/04 00:07:11;;;;;;;9.30;8.02;;;;;;;16.24;100.00;63675.94;5086710;28;20215;-77
2023/06/04 00:09:38;;;;;;;7.75;6.97;;;;;;;16.25;100.00;63682.63;5075371;28;20200;-78
2023/06/04 00:12:06;;;;;;;8.10;7.35;;;;;;;16.26;100.00;63680.56;5087441;28;20220;-79
2023/06/04 00:14:33;;;;;;;8.30;7.50;;;;;;;16.19;100.00;63671.78;5089442;28;20204;-78
2023/06/04 00:16:59;;;;;;;10.75;6.70;;;;;;;16.20;100.00;63672.31;5079463;28;20240;-78
2023/06/04 00:19:28;;;;;;;12.80;7.88;;;;;;;16.24;100.00;63671.31;5082478;28;20219;-79
2023/06/04 00:21:56;;;;;;;8.68;7.85;;;;;;;16.24;100.00;63673.38;5088810;28;20287;-78
2023/06/04 00:24:23;;;;;;;11.35;8.23;;;;;;;16.23;100.00;63677.97;5089810;28;20222;-78
2023/06/04 00:26:49;;;;;;;17.67;9.80;;;;;;;16.28;100.00;63678.03;5089618;28;20219;-79
2023/06/04 00:29:16;;;;;;;11.55;10.27;;;;;;;16.26;100.00;63683.16;5087427;28;20226;-79
2023/06/04 00:31:43;;;;;;;11.80;9.70;;;;;;;16.31;100.00;63685.78;5092619;28;20451;-78
2023/06/04 00:34:11;;;;;;;9.45;8.30;;;;;;;16.22;100.00;63676.44;5087414;28;20383;-78
2023/06/04 00:36:40;;;;;;;9.55;7.80;;;;;;;16.15;100.00;63667.09;5090432;28;20254;-78
2023/06/04 00:39:07;;;;;;;12.05;8.50;;;;;;;16.17;100.00;63674.81;5085791;28;20245;-78
2023/06/04 00:41:34;;;;;;;10.70;8.32;;;;;;;16.16;100.00;63670.69;5087640;28;20445;-79
2023/06/04 00:44:01;;;;;;;10.25;8.93;;;;;;;16.16;100.00;63668.13;5092176;28;20203;-79
2023/06/04 00:46:31;;;;;;;11.38;9.85;;;;;;;16.21;100.00;63673.31;5095856;28;20223;-79
2023/06/04 00:49:00;;;;;;;12.82;9.40;;;;;;;16.28;100.00;63683.19;5098243;28;20203;-79
2023/06/04 00:51:27;;;;;;;12.27;9.57;;;;;;;16.29;100.00;63688.84;5087152;28;20232;-79
2023/06/04 00:53:56;;;;;;;11.25;9.45;;;;;;;16.27;100.00;63676.47;5087871;28;20218;-79
2023/06/04 00:56:24;;;;;;;10.23;9.20;;;;;;;16.20;100.00;63672.81;5088030;28;20297;-80
2023/06/04 00:58:52;;;;;;;13.20;9.85;;;;;;;16.21;100.00;63678.47;5088287;28;20250;-79
2023/06/04 01:01:32;;;;;;;10.63;9.10;;;;;;;16.17;100.00;63669.69;5096201;28;20216;-78
2023/06/04 01:04:01;;;;;;;10.52;9.52;;;;;;;16.12;100.00;63669.63;5090251;28;20246;-80
2023/06/04 01:06:35;;;;;;;13.77;10.02;;;;;;;16.13;100.00;63662.94;5093294;28;20204;-78
2023/06/04 01:09:04;;;;;;;11.80;10.55;;;;;;;16.07;100.00;63663.91;5087611;28;20260;-78
2023/06/04 01:11:33;;;;;;;14.35;11.32;;;;;;;16.08;100.00;63659.81;5089511;28;20216;-79
2023/06/04 01:14:00;;;;;;;11.85;10.45;;;;;;;16.25;100.00;63679.53;5090334;28;20196;-79
2023/06/04 01:16:29;;;;;;;11.45;10.25;;;;;;;16.29;100.00;63683.72;5089188;28;20232;-79
2023/06/04 01:19:02;;;;;;;10.23;9.18;;;;;;;16.26;100.00;63683.66;5071730;28;20264;-80
2023/06/04 01:21:31;;;;;;;11.10;9.48;;;;;;;16.36;100.00;63688.41;5068066;28;20262;-78
2023/06/04 01:24:02;;;;;;;11.23;10.05;;;;;;;16.44;100.00;63701.88;5078947;28;20207;-79
2023/06/04 01:26:32;;;;;;;10.80;9.73;;;;;;;16.23;100.00;63680.56;5090180;28;20227;-80
2023/06/04 01:29:02;;;;;;;11.90;9.52;;;;;;;16.05;100.00;63659.25;5086446;28;20202;-80
2023/06/04 01:31:32;;;;;;;13.45;10.20;;;;;;;16.00;100.00;63656.63;5088334;28;20216;-78
2023/06/04 01:33:59;;;;;;;10.10;9.13;;;;;;;16.08;100.00;63662.38;5085677;28;20203;-78
2023/06/04 01:36:26;;;;;;;10.95;9.75;;;;;;;16.07;100.00;63658.75;5088778;28;20265;-79
2023/06/04 01:38:54;;;;;;;10.82;9.68;;;;;;;15.83;100.00;63629.19;5089409;28;20258;-79
2023/06/04 01:41:21;;;;;;;12.55;9.63;;;;;;;15.66;100.00;63619.22;5083960;28;20588;-79
2023/06/04 01:43:49;;;;;;;12.10;10.85;;;;;;;15.55;100.00;63612.41;5072324;28;20255;-78
2023/06/04 01:46:17;;;;;;;14.27;11.90;;;;;;;15.56;100.00;63611.41;5085569;28;20238;-79
2023/06/04 01:48:44;;;;;;;13.27;11.88;;;;;;;15.56;100.00;63608.31;5086735;28;20197;-78
2023/06/04 01:51:11;;;;;;;16.25;11.90;;;;;;;15.64;100.00;63617.16;5085319;28;20208;-80
2023/06/04 01:53:38;;;;;;;12.40;11.15;;;;;;;15.76;100.00;63626.53;5084739;28;20385;-78
2023/06/04 01:56:07;;;;;;;12.65;11.35;;;;;;;15.83;100.00;63634.34;5089371;28;20402;-78
2023/06/04 01:58:34;;;;;;;14.30;11.52;;;;;;;15.83;100.00;63636.38;5086106;28;20208;-77
2023/06/04 02:01:05;;;;;;;13.82;12.40;;;;;;;15.89;100.00;63645.69;5089603;28;20196;-78
2023/06/04 02:03:40;;;;;;;12.73;11.20;;;;;;;16.01;100.00;63653.03;5086813;28;20211;-80
2023/06/04 02:06:08;;;;;;;13.63;11.40;;;;;;;15.92;100.00;63643.19;5069850;28;20379;-79
2023/06/04 02:08:35;;;;;;;12.70;11.32;;;;;;;15.88;100.00;63644.66;5071509;28;20216;-79
2023/06/04 02:11:02;;;;;;;13.15;10.95;;;;;;;15.98;100.00;63651.97;5083044;28;20207;-79
2023/06/04 02:13:29;;;;;;;13.27;10.95;;;;;;;15.87;100.00;63643.13;5088321;28;20202;-80
2023/06/04 02:15:56;;;;;;;10.73;9.63;;;;;;;15.77;100.00;63632.72;5087253;28;20262;-79
2023/06/04 02:18:25;;;;;;;10.90;9.13;;;;;;;15.82;100.00;63632.78;5087937;28;20199;-78
2023/06/04 02:20:52;;;;;;;10.27;9.23;;;;;;;15.78;100.00;63629.13;5083476;28;20208;-79
2023/06/04 02:23:20;;;;;;;10.80;9.05;;;;;;;15.72;100.00;63622.88;5081368;28;20205;-79
2023/06/04 02:25:49;;;;;;;7.65;6.85;;;;;;;15.77;100.00;63627.59;5065352;28;20204;-78
2023/06/04 02:28:16;;;;;;;7.00;6.40;;;;;;;15.69;100.00;63619.25;5082849;28;20269;-77
2023/06/04 02:30:45;;;;;;;6.43;5.82;;;;;;;15.50;100.00;63600.03;5082523;28;20196;-79
2023/06/04 02:33:12;;;;;;;7.07;6.00;;;;;;;15.40;100.00;63592.19;5091435;28;20231;-79
2023/06/04 02:35:41;;;;;;;7.88;6.15;;;;;;;15.40;100.00;63594.25;5085747;28;20431;-79
2023/06/04 02:38:08;;;;;;;6.95;6.30;;;;;;;15.33;100.00;63581.81;5083748;28;20430;-79
2023/06/04 02:40:35;;;;;;;6.07;5.47;;;;;;;15.22;100.00;63572.94;5087262;28;20246;-81
2023/06/04 02:43:05;;;;;;;6.25;5.70;;;;;;;15.22;100.00;63570.91;5085602;28;20266;-79
2023/06/04 02:45:32;;;;;;;6.30;5.78;;;;;;;15.22;100.00;63575.53;5084840;28;20660;-80
2023/06/04 02:47:59;;;;;;;6.57;5.88;;;;;;;15.13;100.00;63563.59;5084814;28;20220;-78
2023/06/04 02:50:26;;;;;;;6.25;5.70;;;;;;;15.33;100.00;63584.38;5091365;28;20204;-79
2023/06/04 02:52:54;;;;;;;7.60;6.97;;;;;;;15.24;100.00;63570.41;5085486;28;20275;-79
2023/06/04 02:55:21;;;;;;;7.30;6.60;;;;;;;15.42;100.00;63591.19;5084595;28;20421;-79
2023/06/04 02:57:47;;;;;;;7.70;6.72;;;;;;;15.41;100.00;63595.28;5067333;28;20251;-80
2023/06/04 03:00:16;;;;;;;7.88;7.18;;;;;;;15.22;100.00;63575.53;5067057;28;20197;-79
2023/06/04 03:02:45;;;;;;;7.85;7.05;;;;;;;15.29;100.00;63575.09;5065508;28;20213;-79
2023/06/04 03:05:14;;;;;;;8.07;7.38;;;;;;;15.47;100.00;63596.91;5075027;28;20268;-78
2023/06/04 03:07:44;;;;;;;7.45;6.75;;;;;;;15.57;100.00;63609.34;5088427;28;20216;-79
2023/06/04 03:10:14;;;;;;;10.13;8.32;;;;;;;15.62;100.00;63617.63;5089688;28;20207;-78
2023/06/04 03:12:41;;;;;;;8.35;7.57;;;;;;;15.58;100.00;63610.41;5083515;28;20224;-79
2023/06/04 03:15:10;;;;;;;9.82;8.50;;;;;;;15.59;100.00;63609.38;5086081;28;20230;-79
2023/06/04 03:17:37;;;;;;;9.57;8.65;;;;;;;15.52;100.00;63596.97;5085992;28;20295;-79
2023/06/04 03:20:07;;;;;;;11.65;7.97;;;;;;;15.56;100.00;63603.69;5086124;28;20237;-79
2023/06/04 03:22:35;;;;;;;7.80;7.07;;;;;;;15.57;100.00;63609.88;5073310;28;20533;-79
2023/06/04 03:25:03;;;;;;;7.38;6.68;;;;;;;15.51;100.00;63605.69;5069719;28;20208;-80
2023/06/04 03:27:32;;;;;;;9.50;8.52;;;;;;;15.50;100.00;63602.59;5068204;28;20217;-79
2023/06/04 03:29:59;;;;;;;9.80;8.32;;;;;;;15.60;100.00;63610.41;5079996;28;20201;-79
2023/06/04 03:32:27;;;;;;;9.75;8.45;;;;;;;15.70;100.00;63620.31;5081139;28;20224;-78
2023/06/04 03:34:55;;;;;;;9.38;7.78;;;;;;;15.78;100.00;63631.72;5087709;28;20207;-78
2023/06/04 03:37:22;;;;;;;7.47;6.85;;;;;;;15.78;100.00;63628.63;5085084;28;20279;-80
2023/06/04 03:39:49;;;;;;;7.40;6.70;;;;;;;15.75;100.00;63622.94;5089243;28;20260;-78
2023/06/04 03:42:16;;;;;;;6.60;6.00;;;;;;;15.71;100.00;63621.34;5078857;28;20430;-78
2023/06/04 03:44:47;;;;;;;6.85;6.25;;;;;;;15.67;100.00;63617.69;5086062;28;20200;-78
2023/06/04 03:47:14;;;;;;;6.35;5.65;;;;;;;15.66;100.00;63613.56;5085564;28;20239;-78
2023/06/04 03:49:41;;;;;;;5.78;5.28;;;;;;;15.60;100.00;63609.91;5083882;28;20413;-78
2023/06/04 03:52:08;;;;;;;6.20;5.68;;;;;;;15.59;100.00;63614.00;5086817;28;20239;-78
2023/06/04 03:54:35;;;;;;;10.50;5.63;;;;;;;15.51;100.00;63597.97;5084185;28;20227;-78
2023/06/04 03:57:03;;;;;;;6.30;5.80;;;;;;;15.47;100.00;63599.47;5066410;28;20260;-78
2023/06/04 03:59:30;;;;;;;7.05;5.38;;;;;;;15.36;100.00;63588.00;5073812;28;20247;-78
2023/06/04 04:01:58;;;;;;;4.85;4.55;;;;;;;15.46;100.00;63595.34;5084739;28;20231;-78
2023/06/04 04:04:26;;;;;;;5.68;5.22;;;;;;;15.57;100.00;63609.34;5081045;28;20498;-79
2023/06/04 04:06:52;;;;;;;8.40;6.25;;;;;;;15.66;100.00;63618.69;5086361;28;20223;-79
2023/06/04 04:09:19;;;;;;;7.57;6.85;;;;;;;15.67;100.00;63619.75;5086850;28;20554;-78
2023/06/04 04:11:46;;;;;;;7.00;6.30;;;;;;;15.75;100.00;63625.50;5088831;28;20394;-80
2023/06/04 04:14:13;;;;;;;7.93;7.13;;;;;;;15.80;100.00;63631.22;5077408;28;20197;-79
2023/06/04 04:16:40;;;;;;;10.52;6.97;;;;;;;15.92;100.00;63653.44;5076224;28;20300;-79
2023/06/04 04:19:09;;;;;;;8.32;6.78;;;;;;;15.90;100.00;63646.22;5091781;28;20201;-79
2023/06/04 04:21:38;;;;;;;6.22;5.63;;;;;;;16.05;100.00;63657.22;5085155;28;20217;-78
2023/06/04 04:24:05;;;;;;;5.45;4.88;;;;;;;16.08;100.00;63664.97;5072145;28;20201;-79
2023/06/04 04:26:32;;;;;;;5.93;5.45;;;;;;;16.01;100.00;63650.47;5071757;28;20442;-79
2023/06/04 04:28:59;;;;;;;5.72;5.22;;;;;;;16.09;100.00;63663.41;5075144;28;20213;-80
2023/06/04 04:31:27;;;;;;;6.60;6.10;;;;;;;16.13;100.00;63665.53;5082154;28;20539;-79
2023/06/04 04:33:57;;;;;;;5.93;5.35;;;;;;;16.32;100.00;63686.81;5076968;28;20207;-79
2023/06/04 04:36:25;;;;;;;6.18;5.43;;;;;;;16.29;100.00;63678.56;5082435;28;20216;-79
2023/06/04 04:38:55;;;;;;;6.93;6.22;;;;;;;16.40;100.00;63692.56;5079385;28;20377;-79
2023/06/04 04:41:23;;;;;;;5.93;5.40;;;;;;;16.53;100.00;63709.19;5068490;28;20213;-80
2023/06/04 04:43:49;;;;;;;7.65;6.13;;;;;;;16.70;100.00;63724.34;5072539;28;20222;-79
2023/06/04 04:46:16;;;;;;;6.80;6.22;;;;;;;16.80;100.00;63737.31;5083403;28;20242;-79
2023/06/04 04:48:44;;;;;;;6.55;6.00;;;;;;;16.85;100.00;63741.97;5077951;28;20400;-79
2023/06/04 04:51:10;;;;;;;9.20;6.18;;;;;;;17.04;100.00;63759.72;5074603;28;20513;-79
2023/06/04 04:53:39;;;;;;;6.68;6.18;;;;;;;17.01;100.00;63761.75;5079772;28;20204;-79
2023/06/04 04:56:05;;;;;;;6.75;6.15;;;;;;;17.16;100.00;63774.78;5075294;28;20198;-78
2023/06/04 04:58:32;;;;;;;6.22;5.43;;;;;;;17.54;100.00;63808.69;5076307;28;20227;-79
2023/06/04 05:00:59;;;;;;;5.82;5.30;;;;;;;17.77;100.00;63835.22;5082932;28;20248;-79
2023/06/04 05:03:26;;;;;;;6.05;5.40;;;;;;;17.97;100.00;63858.63;5077642;28;20382;-80
2023/06/04 05:05:53;;;;;;;6.10;5.60;;;;;;;18.27;100.00;63889.88;5077724;28;20192;-79
2023/06/04 05:08:20;;;;;;;6.55;4.75;;;;;;;18.41;100.00;63901.91;5080619;28;20199;-78
2023/06/04 05:10:49;;;;;;;5.28;4.88;;;;;;;18.58;100.00;63918.56;5074391;28;20228;-80
2023/06/04 05:13:17;;;;;;;5.15;4.65;;;;;;;18.83;100.00;63947.72;5085346;28;20220;-78
2023/06/04 05:15:45;;;;;;;5.38;4.78;;;;;;;18.87;100.00;63951.91;5081886;28;20208;-78
2023/06/04 05:18:12;;;;;;;5.25;4.90;;;;;;;18.99;100.00;63961.31;5080444;28;20412;-79
2023/06/04 05:20:39;;;;;;;6.30;5.75;;;;;;;19.19;100.00;63982.16;5075357;28;20208;-79
2023/06/04 05:23:05;;;;;;;5.53;5.07;;;;;;;19.04;100.00;63964.47;5075145;28;20216;-79
2023/06/04 05:25:33;;;;;;;6.18;5.57;;;;;;;18.99;100.00;63963.88;5085631;28;20257;-79
2023/06/04 05:28:01;;;;;;;6.60;6.10;;;;;;;18.96;100.00;63960.75;5084018;28;20220;-79
2023/06/04 05:30:28;;;;;;;7.53;6.35;;;;;;;18.80;100.00;63941.50;5080909;28;20204;-79
2023/06/04 05:32:55;;;;;;;6.00;5.60;;;;;;;18.60;100.00;63920.66;5074958;28;20238;-79
2023/06/04 05:35:23;;;;;;;7.15;6.47;;;;;;;18.72;100.00;63933.69;5075960;28;20246;-79
2023/06/04 05:37:53;;;;;;;8.10;6.75;;;;;;;18.85;100.00;63944.13;5082211;28;20306;-79
2023/06/04 05:40:20;;;;;;;6.53;5.97;;;;;;;18.84;100.00;63953.94;5088815;28;20206;-78
2023/06/04 05:42:48;;;;;;;7.03;6.35;;;;;;;18.70;100.00;63936.75;5077163;28;20223;-81
2023/06/04 05:45:17;;;;;;;9.52;6.97;;;;;;;18.84;100.00;63948.25;5089525;28;20204;-80
2023/06/04 05:47:44;;;;;;;8.27;6.15;;;;;;;18.99;100.00;63966.47;5072515;28;20232;-80
2023/06/04 05:50:11;;;;;;;8.73;7.20;;;;;;;19.15;100.00;63978.53;5067781;28;20398;-80
2023/06/04 05:52:38;;;;;;;5.97;5.40;;;;;;;19.37;100.00;64003.53;5067947;28;20217;-78
2023/06/04 05:55:07;;;;;;;6.63;6.05;;;;;;;19.53;100.00;64020.22;5074371;28;20224;-79
2023/06/04 05:57:35;;;;;;;7.75;6.40;;;;;;;19.55;100.00;64022.81;5087230;28;20231;-78
2023/06/04 06:00:04;;;;;;;6.53;5.93;;;;;;;19.64;100.00;64028.59;5087403;28;20203;-79
2023/06/04 06:02:34;;;;;;;6.68;6.07;;;;;;;19.31;100.00;63997.78;5080947;28;20240;-77
2023/06/04 06:05:01;;;;;;;9.38;6.38;;;;;;;19.34;100.00;63995.78;5074850;28;20197;-79
2023/06/04 06:07:28;;;;;;;6.93;6.13;;;;;;;19.32;100.00;64001.44;5079532;28;20231;-78
2023/06/04 06:09:55;;;;;;;6.03;5.60;;;;;;;19.34;100.00;63998.34;5082951;28;20268;-78
2023/06/04 06:12:23;;;;;;;6.38;5.78;;;;;;;19.38;100.00;63999.41;5086356;28;20283;-80
2023/06/04 06:14:50;;;;;;;7.35;6.68;;;;;;;19.33;100.00;63999.88;5073194;28;20204;-78
2023/06/04 06:17:17;;;;;;;7.60;6.90;;;;;;;19.20;100.00;63986.31;5081613;28;20294;-78
2023/06/04 06:19:46;;;;;;;7.05;6.50;;;;;;;19.25;100.00;63991.00;5075930;28;20193;-78
2023/06/04 06:22:14;;;;;;;7.20;6.60;;;;;;;19.18;100.00;63981.66;5075094;28;20226;-80
2023/06/04 06:24:41;;;;;;;7.88;6.72;;;;;;;19.19;100.00;63982.69;5074782;28;20189;-78
2023/06/04 06:27:08;;;;;;;9.30;7.22;;;;;;;19.31;100.00;63989.53;5072253;28;20246;-79
2023/06/04 06:29:35;;;;;;;10.95;5.50;;;;;;;19.57;100.00;64021.28;5069743;28;20212;-79
2023/06/04 06:32:03;;;;;;;6.50;5.50;;;;;;;19.84;100.00;64052.56;5072201;28;20216;-78
2023/06/04 06:34:30;;;;;;;5.95;5.35;;;;;;;20.16;100.00;64083.38;5077444;28;20201;-78
2023/06/04 06:36:58;;;;;;;7.28;5.50;;;;;;;20.37;100.00;64107.34;5074236;28;20295;-78
2023/06/04 06:39:25;;;;;;;6.35;5.80;;;;;;;20.58;100.00;64127.22;5069022;28;20207;-79
2023/06/04 06:41:52;;;;;;;6.32;5.57;;;;;;;20.85;99.49;64156.94;5079202;28;20449;-78
2023/06/04 06:44:19;;;;;;;6.00;5.35;;;;;;;20.58;98.77;64129.28;5082988;28;20250;-78
2023/06/04 06:46:48;;;;;;;6.85;6.15;;;;;;;20.51;99.69;64124.56;5074703;28;20216;-77
2023/06/04 06:49:16;;;;;;;6.03;5.53;;;;;;;20.42;100.00;64115.69;5069698;28;20215;-80
2023/06/04 06:51:43;;;;;;;8.52;5.38;;;;;;;20.49;100.00;64117.81;5075609;28;20225;-79
2023/06/04 06:54:12;;;;;;;5.63;5.22;;;;;;;20.01;100.00;64070.28;5066928;28;20231;-78
2023/06/04 06:56:39;;;;;;;6.70;5.95;;;;;;;20.18;100.00;64090.63;5085625;28;20219;-80
2023/06/04 06:59:06;;;;;;;7.28;6.50;;;;;;;20.36;100.00;64108.91;5086789;28;20234;-78
2023/06/04 07:01:34;;;;;;;6.43;5.85;;;;;;;20.26;100.00;64093.31;5085175;28;20462;-79
2023/06/04 07:04:01;;;;;;;10.38;5.95;;;;;;;20.25;100.00;64092.25;5085291;28;20347;-79
2023/06/04 07:06:27;;;;;;;6.60;6.05;;;;;;;20.40;100.00;64107.91;5086246;28;20274;-79
2023/06/04 07:08:55;;;;;;;5.80;5.35;;;;;;;20.58;99.87;64134.44;5087079;28;20229;-79
2023/06/04 07:11:24;;;;;;;5.15;4.68;;;;;;;20.71;98.64;64139.75;5088103;28;20445;-79
2023/06/04 07:13:51;;;;;;;7.97;6.00;;;;;;;20.66;100.00;64135.56;5088441;28;20253;-78
2023/06/04 07:16:19;;;;;;;6.75;5.82;;;;;;;20.78;98.19;64147.56;5084450;28;20243;-81
2023/06/04 07:18:49;;;;;;;6.10;5.70;;;;;;;20.97;97.94;64167.41;5087323;28;20286;-78
2023/06/04 07:21:16;;;;;;;8.80;6.57;;;;;;;20.88;98.75;64158.00;5089041;28;20566;-79
2023/06/04 07:23:45;;;;;;;6.75;6.20;;;;;;;20.99;99.42;64168.97;5101171;28;20303;-79
2023/06/04 07:26:12;;;;;;;6.30;5.70;;;;;;;21.13;96.62;64188.78;5076756;28;20204;-79
2023/06/04 07:28:40;;;;;;;7.65;6.95;;;;;;;21.30;97.49;64203.94;5086950;28;20195;-80
2023/06/04 07:31:07;;;;;;;7.88;5.97;;;;;;;21.55;94.83;64228.00;5090008;28;20204;-80
2023/06/04 07:33:34;;;;;;;6.65;6.15;;;;;;;21.42;93.12;64217.00;5086152;28;20379;-81
2023/06/04 07:36:01;;;;;;;7.07;6.43;;;;;;;21.64;93.32;64239.97;5087546;28;20214;-80
2023/06/04 07:38:29;;;;;;;6.68;6.03;;;;;;;22.04;92.15;64278.19;5087134;28;20227;-78
2023/06/04 07:40:56;;;;;;;9.00;6.35;;;;;;;22.45;89.03;64315.84;5071254;28;20326;-77
2023/06/04 07:43:23;;;;;;;9.80;6.22;;;;;;;22.66;86.76;64348.19;5077020;28;20267;-78
2023/06/04 07:45:52;;;;;;;6.72;6.22;;;;;;;23.04;86.09;64384.81;5090632;28;20195;-78
2023/06/04 07:48:20;;;;;;;6.95;6.25;;;;;;;23.34;83.03;64421.41;5091139;28;20203;-77
2023/06/04 07:50:47;;;;;;;7.85;6.90;;;;;;;23.39;81.17;64421.97;5090673;28;20208;-79
2023/06/04 07:53:14;;;;;;;7.78;7.18;;;;;;;23.47;78.69;64424.63;5088490;28;20224;-78
2023/06/04 07:55:41;;;;;;;8.52;7.38;;;;;;;23.43;80.24;64420.94;5091500;28;20204;-78
2023/06/04 07:58:08;;;;;;;10.40;6.93;;;;;;;23.39;80.64;64419.34;5084681;28;20224;-78
2023/06/04 08:00:35;;;;;;;7.57;6.85;;;;;;;23.50;79.59;64435.53;5072554;28;20260;-77
2023/06/04 08:03:04;;;;;;;7.57;6.97;;;;;;;23.74;78.32;64455.97;5090450;28;20216;-78
2023/06/04 08:05:31;;;;;;;9.35;7.10;;;;;;;23.81;78.20;64467.97;5090417;28;20200;-78
2023/06/04 08:07:58;;;;;;;8.70;7.80;;;;;;;24.08;72.61;64488.44;5079157;28;20234;-78
2023/06/04 08:10:25;;;;;;;8.10;7.30;;;;;;;24.08;69.62;64493.13;5083742;28;20200;-78
2023/06/04 08:12:52;;;;;;;8.52;7.65;;;;;;;23.76;70.11;64460.16;5089608;28;20222;-80
2023/06/04 08:15:19;;;;;;;9.75;8.32;;;;;;;23.82;69.68;64466.41;5093186;28;20196;-79
2023/06/04 08:17:46;;;;;;;9.70;8.30;;;;;;;23.90;70.38;64472.19;5075406;28;20563;-80
2023/06/04 08:20:15;;;;;;;10.23;8.23;;;;;;;23.56;71.94;64439.22;5088293;28;20207;-79
2023/06/04 08:22:42;;;;;;;8.45;7.65;;;;;;;24.07;69.69;64492.63;5090078;28;20266;-78
2023/06/04 08:25:10;;;;;;;10.73;8.93;;;;;;;24.40;66.32;64526.63;5078811;28;20224;-80
2023/06/04 08:27:37;;;;;;;9.98;8.52;;;;;;;24.67;65.08;64557.50;5074340;28;20242;-79
2023/06/04 08:30:05;;;;;;;8.32;7.55;;;;;;;25.01;62.62;64593.13;5088580;28;20407;-79
2023/06/04 08:32:33;;;;;;;8.77;7.60;;;;;;;25.19;62.21;64609.38;5070989;28;20221;-80
2023/06/04 08:35:01;;;;;;;9.15;8.00;;;;;;;24.91;64.03;64580.06;5075148;28;20197;-80
2023/06/04 08:37:29;;;;;;;8.52;7.72;;;;;;;25.16;63.10;64606.25;5093226;28;20231;-81
2023/06/04 08:39:56;;;;;;;16.80;8.25;;;;;;;25.32;62.40;64625.06;5085770;28;20206;-79
2023/06/04 08:42:28;;;;;;;9.20;7.60;;;;;;;25.14;61.86;64598.94;5085511;28;20231;-79
2023/06/04 08:44:57;;;;;;;7.90;7.05;;;;;;;25.01;61.08;64582.69;5090897;28;20241;-80
2023/06/04 08:47:25;;;;;;;9.25;6.57;;;;;;;24.81;60.63;64569.59;5070940;28;20418;-79
2023/06/04 08:49:53;;;;;;;7.85;7.13;;;;;;;24.67;59.97;64560.09;5071865;28;20211;-80
2023/06/04 08:52:21;;;;;;;9.00;7.60;;;;;;;24.79;58.97;64570.09;5071076;28;20479;-79
2023/06/04 08:54:56;;;;;;;11.95;7.35;;;;;;;24.97;58.07;64584.25;5075020;28;20381;-80
2023/06/04 08:57:23;;;;;;;9.07;6.97;;;;;;;25.28;57.11;64618.81;5090438;28;20219;-80
2023/06/04 08:59:51;;;;;;;11.55;7.35;;;;;;;25.35;56.97;64628.75;5073165;28;20344;-81
2023/06/04 09:02:18;;;;;;;11.40;6.35;;;;;;;25.49;56.21;64640.81;5084890;28;20234;-80
2023/06/04 09:04:45;;;;;;;8.15;6.25;;;;;;;25.37;54.58;64628.25;5089619;28;20238;-80
2023/06/04 09:07:14;;;;;;;9.35;6.72;;;;;;;25.38;53.81;64626.19;5093534;28;20211;-80
2023/06/04 09:09:43;;;;;;;7.18;6.45;;;;;;;24.85;56.23;64569.06;5085537;28;20219;-80
2023/06/04 09:12:19;;;;;;;10.55;7.97;;;;;;;25.04;55.83;64591.59;5090270;28;20509;-80
2023/06/04 09:14:46;;;;;;;9.40;8.18;;;;;;;24.78;54.64;64563.84;5091409;28;20218;-80
2023/06/04 09:17:13;;;;;;;8.98;6.72;;;;;;;24.84;54.95;64575.31;5091674;28;20258;-80
2023/06/04 09:19:40;;;;;;;7.20;6.60;;;;;;;24.66;56.30;64551.25;5074585;28;20232;-81
2023/06/04 09:22:07;;;;;;;7.43;6.72;;;;;;;24.35;57.51;64518.78;5078090;28;20216;-81
2023/06/04 09:24:41;;;;;;;8.02;7.15;;;;;;;24.43;58.53;64530.31;5092066;28;20195;-80
2023/06/04 09:27:13;;;;;;;7.40;6.32;;;;;;;24.52;59.11;64536.59;5070662;28;20212;-82
2023/06/04 09:29:41;;;;;;;7.30;6.70;;;;;;;24.75;57.89;64563.81;5079344;28;20234;-80
2023/06/04 09:32:08;;;;;;;9.18;7.43;;;;;;;24.20;59.52;64510.88;5090538;28;20289;-81
2023/06/04 09:34:36;;;;;;;9.07;7.60;;;;;;;24.58;59.56;64545.47;5086426;28;20520;-80
2023/06/04 09:37:04;;;;;;;8.35;7.57;;;;;;;24.90;58.17;64574.31;5069373;28;20213;-80
2023/06/04 09:39:31;;;;;;;7.32;6.13;;;;;;;25.22;56.17;64615.13;5073374;28;20232;-79
2023/06/04 09:42:00;;;;;;;9.00;6.68;;;;;;;25.49;55.70;64640.81;5091139;28;20288;-80
2023/06/04 09:44:28;;;;;;;12.57;7.43;;;;;;;25.86;55.21;64682.22;5070034;28;20204;-81
2023/06/04 09:46:56;;;;;;;9.05;7.45;;;;;;;25.93;54.68;64683.81;5070319;28;20240;-80
2023/06/04 09:49:23;;;;;;;8.52;7.70;;;;;;;26.06;53.96;64700.59;5081360;28;20238;-80
2023/06/04 09:51:51;;;;;;;13.27;7.97;;;;;;;26.29;53.40;64723.66;5091382;28;20231;-80
2023/06/04 09:54:18;;;;;;;8.00;7.18;;;;;;;26.18;53.32;64715.78;5089934;28;20218;-79
2023/06/04 09:56:45;;;;;;;9.52;7.90;;;;;;;26.09;52.47;64706.34;5086749;28;20242;-79
2023/06/04 09:59:15;;;;;;;12.48;7.78;;;;;;;25.44;54.23;64635.59;5073026;28;20243;-80
2023/06/04 10:01:45;;;;;;;9.52;7.85;;;;;;;25.15;56.12;64607.78;5072917;28;20228;-80
2023/06/04 10:04:16;;;;;;;8.52;7.30;;;;;;;25.44;57.24;64635.59;5085888;28;20196;-81
2023/06/04 10:06:43;;;;;;;12.05;7.28;;;;;;;25.90;56.78;64681.19;5090515;28;20220;-81
2023/06/04 10:09:12;;;;;;;7.05;6.55;;;;;;;26.28;54.80;64723.13;5090090;28;20223;-79
2023/06/04 10:11:45;;;;;;;11.55;7.10;;;;;;;25.91;53.20;64687.47;5091045;28;20580;-80
2023/06/04 10:14:21;;;;;;;15.00;7.97;;;;;;;25.61;53.83;64656.00;5074159;28;20201;-80
2023/06/04 10:16:51;;;;;;;7.20;6.50;;;;;;;25.29;54.78;64617.25;5084080;28;20219;-80
2023/06/04 10:19:20;;;;;;;9.55;7.35;;;;;;;24.96;55.93;64585.81;5090678;28;20257;-82
2023/06/04 10:21:47;;;;;;;8.50;7.70;;;;;;;25.05;57.14;64595.25;5092048;28;20223;-80
2023/06/04 10:24:15;;;;;;;11.05;6.82;;;;;;;25.23;55.43;64615.66;5091621;28;20196;-80
2023/06/04 10:26:43;;;;;;;7.03;6.28;;;;;;;25.14;57.13;64604.16;5088453;28;20243;-80
2023/06/04 10:29:13;;;;;;;7.78;6.97;;;;;;;25.38;54.54;64624.09;5090626;28;20199;-80
2023/06/04 10:31:41;;;;;;;8.05;6.50;;;;;;;25.66;52.93;64663.84;5078307;28;20224;-80
2023/06/04 10:34:09;;;;;;;7.82;7.13;;;;;;;26.04;53.14;64700.59;5071294;28;20512;-79
2023/06/04 10:36:44;;;;;;;7.35;6.38;;;;;;;25.99;52.06;64685.41;5070982;28;20216;-81
2023/06/04 10:39:12;;;;;;;8.10;6.60;;;;;;;26.17;51.83;64711.59;5069674;28;20287;-82
2023/06/04 10:41:39;;;;;;;8.27;6.35;;;;;;;26.23;50.85;64718.41;5069236;28;20228;-80
2023/06/04 10:44:07;;;;;;;7.03;6.43;;;;;;;26.46;51.02;64741.47;5087263;28;20558;-82
2023/06/04 10:46:42;;;;;;;6.88;6.25;;;;;;;26.58;50.84;64759.81;5087216;28;20219;-80
2023/06/04 10:49:11;;;;;;;7.82;7.10;;;;;;;26.96;50.87;64796.53;5090275;28;20192;-80
2023/06/04 10:51:38;;;;;;;6.90;6.38;;;;;;;26.75;51.25;64771.91;5088830;28;20246;-80
2023/06/04 10:54:06;;;;;;;6.25;5.75;;;;;;;26.79;49.44;64774.00;5082521;28;20239;-80
2023/06/04 10:56:34;;;;;;;7.50;6.75;;;;;;;26.27;49.26;64724.16;5069359;28;20760;-79
2023/06/04 10:59:13;;;;;;;9.15;6.38;;;;;;;26.50;50.51;64743.59;5068388;28;20292;-80
2023/06/04 11:01:40;;;;;;;7.00;6.40;;;;;;;26.78;50.86;64772.44;5084382;28;20269;-79
2023/06/04 11:04:07;;;;;;;7.90;7.07;;;;;;;26.33;51.08;64722.63;5088944;28;20220;-80
2023/06/04 11:06:37;;;;;;;6.97;6.30;;;;;;;26.78;49.76;64775.06;5090188;28;20220;-81
2023/06/04 11:09:07;;;;;;;6.88;6.28;;;;;;;26.70;50.10;64766.66;5070020;28;20269;-81
2023/06/04 11:11:34;;;;;;;6.85;6.25;;;;;;;26.70;49.62;64764.03;5088834;28;20219;-80
2023/06/04 11:14:11;;;;;;;7.63;6.80;;;;;;;26.38;51.27;64736.22;5087220;28;20202;-80
2023/06/04 11:16:39;;;;;;;6.90;6.32;;;;;;;26.45;50.66;64745.66;5092343;28;20244;-82
2023/06/04 11:19:06;;;;;;;6.75;6.15;;;;;;;26.38;51.40;64735.69;5095231;28;20231;-81
2023/06/04 11:21:37;;;;;;;6.57;6.13;;;;;;;25.86;50.83;64677.00;5088859;28;20211;-79
2023/06/04 11:24:06;;;;;;;6.90;6.40;;;;;;;25.51;52.23;64642.94;5089052;28;20196;-81
2023/06/04 11:26:33;;;;;;;6.07;5.57;;;;;;;25.34;53.89;64624.56;5090400;28;20215;-81
2023/06/04 11:29:02;;;;;;;6.70;6.18;;;;;;;25.08;53.86;64600.47;5069534;28;20199;-79
2023/06/04 11:31:28;;;;;;;7.10;6.38;;;;;;;25.26;56.17;64616.19;5087190;28;20254;-81